Time;durP1;ratioP1;P1;durP2;ratioP2;P2;SDS_P1;SDS_P2;PMS_P1;PMS_P2;Temp;Humidity;BMP_temperature;BMP_pressure;BME280_temperature;BME280_humidity;BME280_pressure;Samples;Min_cycle;Max_cycle;Signal;HPM_P1;HPM_P2
2021/01/06 00:01:45;;;;;;;41.47;18.23;;;3.80;99.90;;;;;;5054880;28;20235;-79
2021/01/06 00:04:12;;;;;;;37.50;18.27;;;3.70;99.90;;;;;;5055014;28;20209;-79
2021/01/06 00:06:38;;;;;;;37.77;18.30;;;3.80;99.90;;;;;;5053558;28;20235;-79
2021/01/06 00:09:05;;;;;;;38.27;18.17;;;3.70;99.90;;;;;;5053493;28;20206;-80
2021/01/06 00:11:33;;;;;;;36.43;17.97;;;3.60;99.90;;;;;;5052829;28;20209;-79
2021/01/06 00:14:00;;;;;;;35.63;18.10;;;3.60;99.90;;;;;;5053168;28;20625;-79
2021/01/06 00:16:27;;;;;;;43.43;18.50;;;3.70;99.90;;;;;;5054664;28;20240;-79
2021/01/06 00:18:53;;;;;;;41.50;18.17;;;3.70;99.90;;;;;;5052961;28;20209;-79
2021/01/06 00:21:21;;;;;;;38.00;17.20;;;3.60;99.90;;;;;;5052869;28;20586;-79
2021/01/06 00:23:48;;;;;;;34.57;17.53;;;3.70;99.90;;;;;;5055112;28;20208;-79
2021/01/06 00:26:14;;;;;;;37.43;17.70;;;3.70;99.90;;;;;;5054220;28;20226;-79
2021/01/06 00:28:40;;;;;;;32.70;17.13;;;3.70;99.90;;;;;;5056139;28;20217;-79
2021/01/06 00:31:07;;;;;;;30.80;15.63;;;3.70;99.90;;;;;;5053744;28;20201;-79
2021/01/06 00:33:36;;;;;;;35.70;16.87;;;3.70;99.90;;;;;;5054072;28;20206;-79
2021/01/06 00:36:05;;;;;;;32.23;16.30;;;3.70;99.90;;;;;;5062884;28;20208;-79
2021/01/06 00:38:33;;;;;;;34.20;16.93;;;3.80;99.90;;;;;;5072569;28;20208;-79
2021/01/06 00:40:59;;;;;;;35.80;16.90;;;3.70;99.90;;;;;;5072647;28;20211;-79
2021/01/06 00:43:26;;;;;;;31.97;15.77;;;3.70;99.90;;;;;;5072168;28;20208;-79
2021/01/06 00:45:53;;;;;;;33.23;15.13;;;3.70;99.90;;;;;;5072525;28;20289;-79
2021/01/06 00:48:19;;;;;;;32.53;16.10;;;3.80;99.90;;;;;;5072527;28;20251;-78
2021/01/06 00:50:46;;;;;;;33.00;15.60;;;3.70;99.90;;;;;;5072417;28;20209;-79
2021/01/06 00:53:16;;;;;;;27.43;14.53;;;3.70;99.90;;;;;;5072346;28;20196;-78
2021/01/06 00:55:44;;;;;;;27.50;14.10;;;3.60;99.90;;;;;;5072184;28;20204;-79
2021/01/06 00:58:10;;;;;;;31.20;15.20;;;3.70;99.90;;;;;;5072143;28;20592;-79
2021/01/06 01:00:37;;;;;;;38.43;13.67;;;3.70;99.90;;;;;;5072238;28;20213;-79
2021/01/06 01:03:03;;;;;;;29.10;14.10;;;3.70;99.90;;;;;;5072336;28;20220;-79
2021/01/06 01:05:33;;;;;;;27.80;14.30;;;3.70;99.90;;;;;;5071969;28;20234;-78
2021/01/06 01:08:00;;;;;;;27.30;14.23;;;3.60;99.90;;;;;;5072382;28;20209;-79
2021/01/06 01:10:31;;;;;;;29.27;14.20;;;3.60;99.90;;;;;;5071959;28;20204;-79
2021/01/06 01:12:59;;;;;;;27.43;14.53;;;3.70;99.90;;;;;;5059306;28;20213;-79
2021/01/06 01:15:28;;;;;;;28.03;14.10;;;3.80;99.90;;;;;;5060816;28;20201;-79
2021/01/06 01:17:55;;;;;;;24.83;13.47;;;3.80;99.90;;;;;;5072035;28;20200;-79
2021/01/06 01:20:21;;;;;;;28.87;14.60;;;3.80;99.90;;;;;;5072362;28;20295;-79
2021/01/06 01:22:49;;;;;;;28.50;14.57;;;3.90;99.90;;;;;;5072768;28;20204;-79
2021/01/06 01:25:18;;;;;;;25.33;13.33;;;3.90;99.90;;;;;;5073132;28;20292;-79
2021/01/06 01:27:44;;;;;;;23.90;13.27;;;3.80;99.90;;;;;;5072878;28;20204;-79
2021/01/06 01:30:15;;;;;;;25.47;12.90;;;3.80;99.90;;;;;;5072632;28;20295;-79
2021/01/06 01:32:43;;;;;;;24.70;12.67;;;3.70;99.90;;;;;;5072521;28;20215;-78
2021/01/06 01:35:11;;;;;;;25.13;12.17;;;3.70;99.90;;;;;;5072487;28;20203;-79
2021/01/06 01:37:42;;;;;;;22.93;11.37;;;3.80;99.90;;;;;;5072494;28;20216;-79
2021/01/06 01:40:10;;;;;;;23.10;12.17;;;3.80;99.90;;;;;;5072099;28;20662;-79
2021/01/06 01:42:36;;;;;;;21.97;11.37;;;3.90;99.90;;;;;;5072444;28;20204;-79
2021/01/06 01:45:07;;;;;;;24.20;11.80;;;3.90;99.90;;;;;;5072019;28;20719;-79
2021/01/06 01:47:50;;;;;;;21.73;12.00;;;3.80;99.90;;;;;;5072291;28;20224;-79
2021/01/06 01:50:20;;;;;;;19.40;11.50;;;3.70;99.90;;;;;;5071771;28;20208;-79
2021/01/06 01:52:51;;;;;;;22.67;11.13;;;3.70;99.90;;;;;;5072026;28;20689;-79
2021/01/06 01:55:20;;;;;;;23.57;11.97;;;3.60;99.90;;;;;;5073353;28;20614;-79
2021/01/06 01:57:49;;;;;;;23.30;11.83;;;3.60;99.90;;;;;;5075858;28;20214;-79
2021/01/06 02:00:20;;;;;;;22.47;10.90;;;3.60;99.90;;;;;;5075743;28;20209;-79
2021/01/06 02:03:00;;;;;;;21.40;11.77;;;3.70;99.90;;;;;;5075703;28;20205;-79
2021/01/06 02:05:30;;;;;;;16.93;9.80;;;3.90;99.90;;;;;;5075230;28;20228;-79
2021/01/06 02:08:00;;;;;;;22.00;11.93;;;3.80;99.90;;;;;;5075962;28;20229;-79
2021/01/06 02:10:31;;;;;;;21.47;11.37;;;3.80;99.90;;;;;;5075856;28;20208;-79
2021/01/06 02:13:02;;;;;;;22.40;11.83;;;3.70;99.90;;;;;;5072683;28;20203;-78
2021/01/06 02:15:35;;;;;;;21.90;11.93;;;3.70;99.90;;;;;;5064636;28;20216;-79
2021/01/06 02:18:03;;;;;;;23.33;12.27;;;3.70;99.90;;;;;;5075263;28;20207;-79
2021/01/06 02:20:31;;;;;;;20.80;11.57;;;3.70;99.90;;;;;;5075028;28;20213;-79
2021/01/06 02:23:00;;;;;;;26.67;12.17;;;3.70;99.90;;;;;;5074906;28;20216;-78
2021/01/06 02:25:28;;;;;;;20.70;10.40;;;3.70;99.90;;;;;;5075225;28;20248;-79
2021/01/06 02:28:00;;;;;;;22.33;11.27;;;3.70;99.90;;;;;;5075285;28;20338;-79
2021/01/06 02:30:28;;;;;;;25.03;12.37;;;3.70;99.90;;;;;;5061660;28;20552;-78
2021/01/06 02:32:55;;;;;;;22.23;12.47;;;3.80;99.90;;;;;;5075206;28;20292;-79
2021/01/06 02:35:21;;;;;;;21.80;11.50;;;3.70;99.90;;;;;;5074493;28;20226;-79
2021/01/06 02:37:50;;;;;;;22.60;12.17;;;3.80;99.90;;;;;;5074806;28;20209;-79
2021/01/06 02:40:18;;;;;;;23.10;11.93;;;3.80;99.90;;;;;;5074668;28;20225;-79
2021/01/06 02:42:46;;;;;;;20.87;11.80;;;3.80;99.90;;;;;;5074827;28;20226;-78
2021/01/06 02:45:15;;;;;;;26.93;12.43;;;3.80;99.90;;;;;;5074729;28;20343;-78
2021/01/06 02:47:44;;;;;;;22.50;12.23;;;3.80;99.90;;;;;;5074459;28;20208;-79
2021/01/06 02:50:13;;;;;;;25.33;12.13;;;3.90;99.90;;;;;;5074600;28;20215;-79
2021/01/06 02:52:46;;;;;;;24.67;11.47;;;3.80;99.90;;;;;;5074752;28;20390;-79
2021/01/06 02:55:14;;;;;;;29.23;13.07;;;3.80;99.90;;;;;;5074631;28;20206;-79
2021/01/06 02:57:43;;;;;;;26.27;12.33;;;3.90;99.90;;;;;;5074676;28;20285;-78
2021/01/06 03:00:14;;;;;;;23.23;12.07;;;3.90;99.90;;;;;;5074393;28;20558;-78
2021/01/06 03:02:40;;;;;;;27.67;13.53;;;3.90;99.90;;;;;;5074259;28;20300;-79
2021/01/06 03:05:14;;;;;;;23.90;12.60;;;3.80;99.90;;;;;;5074286;28;20214;-79
2021/01/06 03:07:41;;;;;;;23.10;12.03;;;3.80;99.90;;;;;;5073416;28;20196;-79
2021/01/06 03:10:12;;;;;;;25.17;12.70;;;3.80;99.90;;;;;;5074291;28;20205;-79
2021/01/06 03:12:39;;;;;;;23.23;12.53;;;3.80;99.90;;;;;;5074180;28;20197;-79
2021/01/06 03:15:07;;;;;;;28.50;13.57;;;3.80;99.90;;;;;;5060377;28;20211;-79
2021/01/06 03:17:34;;;;;;;26.87;13.77;;;3.90;99.90;;;;;;5073903;28;20201;-79
2021/01/06 03:20:04;;;;;;;26.30;13.43;;;3.90;99.90;;;;;;5073903;28;20226;-78
2021/01/06 03:22:33;;;;;;;29.90;14.20;;;3.90;99.90;;;;;;5074370;28;20286;-79
2021/01/06 03:25:06;;;;;;;24.60;12.67;;;3.80;99.90;;;;;;5073844;28;20205;-79
2021/01/06 03:27:35;;;;;;;26.83;14.23;;;3.80;99.90;;;;;;5073871;28;20239;-79
2021/01/06 03:30:03;;;;;;;25.57;13.13;;;3.80;99.90;;;;;;5073694;28;20211;-78
2021/01/06 03:32:34;;;;;;;27.83;14.40;;;3.90;99.90;;;;;;5074144;28;20234;-79
2021/01/06 03:35:05;;;;;;;26.77;14.37;;;3.80;99.90;;;;;;5073566;28;20212;-78
2021/01/06 03:37:35;;;;;;;27.73;13.87;;;3.90;99.90;;;;;;5073765;28;20201;-79
2021/01/06 03:40:08;;;;;;;25.23;13.63;;;3.90;99.90;;;;;;5073945;28;20200;-78
2021/01/06 03:42:35;;;;;;;25.03;12.57;;;4.00;99.90;;;;;;5073698;28;20544;-79
2021/01/06 03:45:04;;;;;;;30.70;13.90;;;4.00;99.90;;;;;;5073680;28;20202;-79
2021/01/06 03:47:36;;;;;;;27.93;14.37;;;3.90;99.90;;;;;;5073357;28;20264;-78
2021/01/06 03:50:09;;;;;;;27.90;13.63;;;3.90;99.90;;;;;;5073410;28;20204;-79
2021/01/06 03:52:47;;;;;;;29.60;15.17;;;3.80;99.90;;;;;;5073528;28;20298;-79
2021/01/06 03:55:24;;;;;;;28.30;13.90;;;3.90;99.90;;;;;;5073044;28;20269;-79
2021/01/06 03:57:53;;;;;;;28.37;13.47;;;3.90;99.90;;;;;;5073324;28;20213;-79
2021/01/06 04:00:45;;;;;;;30.47;14.30;;;3.90;99.90;;;;;;5073276;28;20204;-79
2021/01/06 04:03:25;;;;;;;28.80;14.20;;;3.90;99.90;;;;;;5073330;28;20232;-78
2021/01/06 04:05:52;;;;;;;33.03;15.07;;;4.00;99.90;;;;;;5073420;28;20737;-78
2021/01/06 04:08:28;;;;;;;30.23;13.60;;;3.90;99.90;;;;;;5073267;28;20215;-79
2021/01/06 04:11:00;;;;;;;28.30;14.20;;;3.90;99.90;;;;;;5072764;28;20246;-78
2021/01/06 04:13:26;;;;;;;29.83;14.70;;;3.90;99.90;;;;;;5066815;28;20335;-79
2021/01/06 04:15:52;;;;;;;32.63;14.43;;;4.00;99.90;;;;;;5065468;28;20223;-78
2021/01/06 04:18:20;;;;;;;30.07;14.47;;;4.00;99.90;;;;;;5072718;28;20220;-78
2021/01/06 04:20:46;;;;;;;32.90;14.97;;;4.00;99.90;;;;;;5072845;28;20215;-79
2021/01/06 04:23:15;;;;;;;28.37;14.73;;;4.10;99.90;;;;;;5073080;28;20205;-79
2021/01/06 04:25:43;;;;;;;29.80;13.93;;;4.10;99.90;;;;;;5072798;28;20237;-79
2021/01/06 04:28:13;;;;;;;30.43;14.70;;;4.00;99.90;;;;;;5072878;28;20543;-78
2021/01/06 04:30:42;;;;;;;29.47;13.50;;;4.00;99.90;;;;;;5072620;28;20209;-79
2021/01/06 04:33:11;;;;;;;29.17;13.80;;;4.10;99.90;;;;;;5072474;28;20665;-79
2021/01/06 04:35:41;;;;;;;29.60;13.93;;;4.10;99.90;;;;;;5072878;28;20209;-78
2021/01/06 04:38:08;;;;;;;30.47;15.37;;;4.00;99.90;;;;;;5072885;28;20296;-79
2021/01/06 04:40:40;;;;;;;28.33;14.37;;;4.00;99.90;;;;;;5072489;28;20295;-78
2021/01/06 04:43:15;;;;;;;23.73;12.40;;;4.00;99.90;;;;;;5072576;28;20200;-78
2021/01/06 04:45:50;;;;;;;27.47;14.00;;;3.90;99.90;;;;;;5058320;28;20254;-78
2021/01/06 04:48:45;;;;;;;28.33;13.50;;;3.90;99.90;;;;;;5072736;28;20200;-79
2021/01/06 04:51:41;;;;;;;26.67;13.60;;;4.00;99.90;;;;;;5059730;28;20209;-79
2021/01/06 04:54:44;;;;;;;25.70;12.83;;;4.10;99.90;;;;;;5072196;28;20692;-78
2021/01/06 04:57:41;;;;;;;23.23;12.70;;;4.00;99.90;;;;;;5072209;28;20229;-79
2021/01/06 05:00:19;;;;;;;28.53;13.40;;;3.90;99.90;;;;;;5072580;28;20201;-78
2021/01/06 05:03:09;;;;;;;22.97;12.00;;;3.90;99.90;;;;;;5059004;28;20200;-78
2021/01/06 05:06:07;;;;;;;23.10;11.77;;;4.00;99.90;;;;;;5072051;28;20204;-78
2021/01/06 05:08:38;;;;;;;20.13;10.37;;;3.90;99.90;;;;;;5056395;28;20277;-79
2021/01/06 05:11:09;;;;;;;24.97;11.87;;;3.90;99.90;;;;;;5071964;28;20663;-78
2021/01/06 05:13:41;;;;;;;21.60;11.90;;;3.90;99.90;;;;;;5064411;28;20215;-78
2021/01/06 05:16:13;;;;;;;23.77;12.03;;;3.90;99.90;;;;;;5066609;28;20255;-79
2021/01/06 05:18:40;;;;;;;22.33;11.03;;;3.90;99.90;;;;;;5072194;28;20222;-79
2021/01/06 05:21:13;;;;;;;25.52;15.15;;;3.90;99.90;;;;;;5071230;28;20860;-78
2021/01/06 05:23:42;;;;;;;24.33;12.70;;;4.00;99.90;;;;;;5072342;28;20204;-78
2021/01/06 05:26:08;;;;;;;21.63;11.30;;;4.00;99.90;;;;;;5072228;28;20229;-79
2021/01/06 05:28:34;;;;;;;24.33;11.27;;;3.90;99.90;;;;;;5071876;28;20658;-78
2021/01/06 05:31:01;;;;;;;20.50;10.33;;;3.90;99.90;;;;;;5075608;28;20573;-78
2021/01/06 05:33:34;;;;;;;20.17;10.07;;;3.90;99.90;;;;;;5075971;28;20214;-78
2021/01/06 05:36:02;;;;;;;21.90;11.10;;;3.90;99.90;;;;;;5076472;28;20243;-78
2021/01/06 05:38:28;;;;;;;21.73;10.60;;;3.80;99.90;;;;;;5075936;28;20204;-78
2021/01/06 05:40:55;;;;;;;21.30;11.17;;;3.80;99.90;;;;;;5076173;28;20204;-79
2021/01/06 05:43:39;;;;;;;23.53;12.00;;;3.90;99.90;;;;;;5075535;28;20215;-79
2021/01/06 05:46:11;;;;;;;19.00;10.40;;;3.90;99.90;;;;;;5076019;28;20221;-78
2021/01/06 05:48:41;;;;;;;20.53;11.07;;;3.80;99.90;;;;;;5075775;28;20205;-78
2021/01/06 05:51:14;;;;;;;23.50;11.60;;;3.80;99.90;;;;;;5075729;28;20688;-78
2021/01/06 05:53:45;;;;;;;21.50;11.13;;;3.70;99.90;;;;;;5075665;28;20303;-78
2021/01/06 05:56:25;;;;;;;21.73;11.17;;;3.70;99.90;;;;;;5075612;28;20204;-79
2021/01/06 05:58:57;;;;;;;22.33;10.93;;;3.70;99.90;;;;;;5075780;28;20213;-79
2021/01/06 06:01:34;;;;;;;24.00;11.43;;;3.70;99.90;;;;;;5073443;28;20651;-79
2021/01/06 06:04:17;;;;;;;23.50;11.73;;;3.80;99.90;;;;;;5075132;28;20200;-78
2021/01/06 06:07:23;;;;;;;21.87;11.23;;;3.70;99.90;;;;;;5075367;28;20217;-79
2021/01/06 06:10:05;;;;;;;22.50;11.70;;;3.80;99.90;;;;;;5057260;28;20925;-79
2021/01/06 06:12:45;;;;;;;24.53;11.90;;;3.80;99.90;;;;;;5065571;28;20208;-79
2021/01/06 06:15:34;;;;;;;19.60;10.70;;;3.90;99.90;;;;;;5064135;28;20234;-78
2021/01/06 06:18:39;;;;;;;25.03;12.27;;;3.90;99.90;;;;;;5070335;28;20201;-79
2021/01/06 06:21:20;;;;;;;22.57;11.67;;;3.80;99.90;;;;;;5072196;28;20239;-79
2021/01/06 06:24:10;;;;;;;26.20;12.23;;;3.90;99.90;;;;;;5065443;28;20760;-79
2021/01/06 06:26:45;;;;;;;21.60;11.13;;;3.90;99.90;;;;;;5062054;28;20227;-80
2021/01/06 06:29:21;;;;;;;24.03;11.70;;;3.90;99.90;;;;;;5068130;28;20205;-79
2021/01/06 06:31:50;;;;;;;24.80;11.27;;;4.00;99.90;;;;;;5069992;28;20200;-78
2021/01/06 06:34:25;;;;;;;22.17;11.33;;;4.00;99.90;;;;;;5068333;28;20200;-78
2021/01/06 06:36:52;;;;;;;24.67;11.10;;;4.00;99.90;;;;;;5069558;28;20199;-78
2021/01/06 06:39:29;;;;;;;24.07;11.07;;;4.00;99.90;;;;;;5073261;28;21001;-78
2021/01/06 06:42:01;;;;;;;24.80;11.37;;;4.00;99.90;;;;;;5071908;28;20208;-78
2021/01/06 06:44:31;;;;;;;28.20;13.10;;;3.90;99.90;;;;;;5066420;28;20199;-79
2021/01/06 06:47:10;;;;;;;24.33;11.63;;;3.90;99.90;;;;;;5072971;28;20264;-78
2021/01/06 06:50:04;;;;;;;23.10;11.47;;;3.80;99.90;;;;;;5068819;28;20232;-78
2021/01/06 06:52:36;;;;;;;22.70;11.87;;;3.90;99.90;;;;;;5023751;28;20773;-79
2021/01/06 06:55:14;;;;;;;25.43;11.70;;;3.90;99.90;;;;;;5066969;28;20205;-78
2021/01/06 06:57:46;;;;;;;26.63;12.37;;;3.90;99.90;;;;;;5052819;28;20212;-77
2021/01/06 07:00:19;;;;;;;25.83;12.20;;;3.90;99.90;;;;;;5054185;28;20205;-78
2021/01/06 07:02:48;;;;;;;24.77;12.47;;;3.80;99.90;;;;;;5055745;28;20192;-78
2021/01/06 07:05:24;;;;;;;26.83;12.60;;;3.80;99.90;;;;;;5073899;28;20201;-77
2021/01/06 07:07:53;;;;;;;23.63;12.73;;;3.80;99.90;;;;;;5073861;28;20592;-77
2021/01/06 07:10:23;;;;;;;28.43;12.97;;;4.00;99.90;;;;;;5073971;28;20253;-77
2021/01/06 07:12:51;;;;;;;28.57;13.07;;;3.90;99.90;;;;;;5072749;28;20265;-78
2021/01/06 07:15:29;;;;;;;25.37;12.40;;;3.80;99.90;;;;;;5055125;28;20243;-77
2021/01/06 07:17:56;;;;;;;23.20;10.63;;;3.90;99.90;;;;;;5059724;28;20294;-77
2021/01/06 07:20:40;;;;;;;26.90;12.50;;;3.90;99.90;;;;;;5073398;28;20620;-78
2021/01/06 07:23:13;;;;;;;25.03;11.93;;;3.80;99.90;;;;;;5073359;28;20198;-78
2021/01/06 07:25:42;;;;;;;17.80;9.70;;;3.70;99.90;;;;;;5073958;28;20211;-77
2021/01/06 07:28:14;;;;;;;22.93;11.20;;;3.70;99.90;;;;;;5073958;28;20197;-77
2021/01/06 07:30:46;;;;;;;23.57;11.13;;;3.70;99.90;;;;;;5074449;28;20229;-79
2021/01/06 07:33:23;;;;;;;21.30;10.97;;;3.70;99.90;;;;;;5073695;28;20202;-79
2021/01/06 07:35:50;;;;;;;20.70;10.70;;;3.70;99.90;;;;;;5073579;28;20201;-79
2021/01/06 07:38:18;;;;;;;21.23;11.23;;;3.80;99.90;;;;;;5073811;28;20200;-79
2021/01/06 07:40:47;;;;;;;24.13;10.63;;;3.80;99.90;;;;;;5073950;28;20204;-79
2021/01/06 07:43:20;;;;;;;21.87;11.47;;;3.80;99.90;;;;;;5073012;28;20216;-79
2021/01/06 07:46:04;;;;;;;26.03;12.13;;;3.80;99.90;;;;;;5060969;28;20220;-78
2021/01/06 07:48:41;;;;;;;23.60;11.77;;;3.80;99.90;;;;;;5059067;28;20229;-79
2021/01/06 07:51:15;;;;;;;23.73;10.57;;;3.90;99.90;;;;;;5053611;28;20188;-79
2021/01/06 07:53:46;;;;;;;24.17;11.47;;;4.00;99.90;;;;;;5053104;28;20205;-79
2021/01/06 07:56:25;;;;;;;24.07;12.00;;;3.80;99.90;;;;;;5056461;28;20650;-78
2021/01/06 07:58:55;;;;;;;22.10;11.27;;;3.80;99.90;;;;;;5073254;28;20230;-79
2021/01/06 08:01:34;;;;;;;22.97;11.43;;;3.70;99.90;;;;;;5055948;28;20214;-79
2021/01/06 08:04:06;;;;;;;22.63;11.23;;;3.60;99.90;;;;;;5062130;28;20382;-79
2021/01/06 08:06:44;;;;;;;25.07;11.90;;;3.70;99.90;;;;;;5073104;28;20299;-79
2021/01/06 08:09:11;;;;;;;25.30;12.50;;;3.80;99.90;;;;;;5073100;28;20201;-79
2021/01/06 08:11:47;;;;;;;25.10;11.80;;;3.70;99.90;;;;;;5072651;28;20653;-79
2021/01/06 08:14:22;;;;;;;22.63;11.90;;;3.80;99.90;;;;;;5055826;28;20193;-79
2021/01/06 08:16:54;;;;;;;23.93;11.67;;;3.80;99.90;;;;;;5052716;28;20280;-78
2021/01/06 08:19:25;;;;;;;22.63;11.80;;;3.70;99.90;;;;;;5068263;28;20578;-79
2021/01/06 08:22:00;;;;;;;28.90;12.17;;;3.80;99.90;;;;;;5065132;28;20581;-79
2021/01/06 08:24:33;;;;;;;27.80;12.77;;;3.80;99.90;;;;;;5052703;28;20197;-79
2021/01/06 08:27:01;;;;;;;30.25;16.55;;;3.80;99.90;;;;;;5070428;28;20464;-79
2021/01/06 08:29:29;;;;;;;25.80;13.70;;;3.80;99.90;;;;;;5072728;28;20209;-78
2021/01/06 08:32:02;;;;;;;28.93;13.80;;;3.80;99.90;;;;;;5072345;28;20199;-78
2021/01/06 08:34:32;;;;;;;26.90;12.10;;;3.80;99.90;;;;;;5072895;28;20284;-78
2021/01/06 08:37:04;;;;;;;26.00;13.13;;;3.80;99.90;;;;;;5072621;28;20200;-79
2021/01/06 08:39:34;;;;;;;26.17;13.73;;;3.80;99.90;;;;;;5072372;28;20208;-79
2021/01/06 08:42:17;;;;;;;26.83;12.73;;;3.80;99.90;;;;;;5064612;28;20196;-79
2021/01/06 08:44:46;;;;;;;28.47;12.80;;;3.80;99.90;;;;;;5055833;28;20231;-79
2021/01/06 08:47:27;;;;;;;26.53;11.97;;;3.80;99.90;;;;;;5071849;28;20234;-79
2021/01/06 08:49:53;;;;;;;24.13;11.87;;;3.70;99.90;;;;;;5072266;28;20205;-79
2021/01/06 08:52:23;;;;;;;25.20;12.87;;;3.70;99.90;;;;;;5070482;28;20560;-79
2021/01/06 08:55:05;;;;;;;28.77;12.93;;;3.70;99.90;;;;;;5072367;28;20205;-79
2021/01/06 08:57:33;;;;;;;23.87;12.23;;;3.70;99.90;;;;;;5071153;28;20250;-79
2021/01/06 09:00:28;;;;;;;23.47;12.27;;;3.70;99.90;;;;;;5072353;28;20212;-79
2021/01/06 09:03:00;;;;;;;26.70;12.60;;;3.80;99.90;;;;;;5066364;28;20682;-79
2021/01/06 09:05:50;;;;;;;24.60;12.83;;;3.90;99.90;;;;;;5071125;28;20287;-79
2021/01/06 09:08:19;;;;;;;24.80;12.33;;;4.00;99.90;;;;;;5064490;28;20561;-79
2021/01/06 09:10:56;;;;;;;26.10;12.63;;;4.10;99.90;;;;;;5051580;28;20213;-79
2021/01/06 09:13:31;;;;;;;30.87;14.23;;;4.00;99.90;;;;;;5052139;28;20191;-79
2021/01/06 09:16:04;;;;;;;28.40;13.13;;;4.00;99.90;;;;;;5054831;28;20787;-79
2021/01/06 09:18:35;;;;;;;31.03;14.37;;;4.00;99.90;;;;;;5065634;28;20201;-79
2021/01/06 09:21:10;;;;;;;29.03;14.03;;;4.00;99.90;;;;;;5062009;28;20683;-78
2021/01/06 09:23:38;;;;;;;25.73;13.60;;;4.00;99.90;;;;;;5072059;28;20220;-79
2021/01/06 09:26:04;;;;;;;25.90;13.13;;;3.80;99.90;;;;;;5055846;28;20198;-79
2021/01/06 09:28:36;;;;;;;26.47;13.17;;;3.80;99.90;;;;;;5063259;28;20207;-80
2021/01/06 09:31:04;;;;;;;24.50;12.93;;;3.80;99.90;;;;;;5070455;28;20192;-78
2021/01/06 09:33:34;;;;;;;23.93;13.10;;;3.80;99.90;;;;;;5051502;28;20234;-79
2021/01/06 09:36:01;;;;;;;26.53;12.80;;;3.70;99.90;;;;;;5051917;28;20209;-79
2021/01/06 09:38:30;;;;;;;23.50;12.40;;;3.80;99.90;;;;;;5051572;28;20262;-79
2021/01/06 09:41:01;;;;;;;26.20;13.90;;;3.80;99.90;;;;;;5051803;28;20554;-79
2021/01/06 09:43:36;;;;;;;27.77;12.97;;;3.90;99.90;;;;;;5051743;28;20185;-79
2021/01/06 09:46:03;;;;;;;24.53;12.70;;;3.90;99.90;;;;;;5051689;28;20201;-79
2021/01/06 09:48:31;;;;;;;28.33;14.27;;;3.90;99.90;;;;;;5051682;28;20201;-79
2021/01/06 09:51:01;;;;;;;24.03;13.47;;;3.90;99.90;;;;;;5062277;28;20202;-79
2021/01/06 09:53:30;;;;;;;25.70;13.63;;;3.90;99.90;;;;;;5071785;28;20255;-79
2021/01/06 09:55:57;;;;;;;26.60;14.03;;;4.00;99.90;;;;;;5071820;28;20209;-79
2021/01/06 09:58:30;;;;;;;26.53;13.90;;;4.00;99.90;;;;;;5071567;28;20210;-80
2021/01/06 10:01:07;;;;;;;31.33;14.90;;;3.90;99.90;;;;;;5064531;28;20282;-79
2021/01/06 10:03:37;;;;;;;25.73;14.10;;;3.90;99.90;;;;;;5051468;28;20213;-79
2021/01/06 10:06:30;;;;;;;29.30;15.07;;;4.00;99.90;;;;;;5056845;28;20672;-79
2021/01/06 10:09:02;;;;;;;26.63;13.80;;;4.00;99.90;;;;;;5051599;28;20206;-79
2021/01/06 10:11:57;;;;;;;26.60;14.03;;;4.10;99.90;;;;;;5054458;28;20189;-79
2021/01/06 10:14:45;;;;;;;25.20;13.97;;;4.00;99.90;;;;;;5062163;28;20195;-79
2021/01/06 10:17:18;;;;;;;27.53;14.07;;;4.10;99.90;;;;;;5074419;28;20189;-79
2021/01/06 10:19:52;;;;;;;27.67;13.63;;;4.10;99.90;;;;;;5059824;28;20260;-79
2021/01/06 10:22:32;;;;;;;25.53;14.10;;;4.10;99.90;;;;;;5071344;28;20205;-79
2021/01/06 10:25:19;;;;;;;28.13;14.30;;;4.00;99.90;;;;;;5075029;28;20201;-79
2021/01/06 10:27:59;;;;;;;29.33;14.63;;;3.90;99.90;;;;;;5075194;28;20231;-79
2021/01/06 10:30:27;;;;;;;24.67;13.17;;;4.00;99.90;;;;;;5073150;28;20591;-79
2021/01/06 10:33:09;;;;;;;25.33;13.87;;;4.00;99.90;;;;;;5055358;28;20218;-79
2021/01/06 10:35:43;;;;;;;24.03;13.27;;;4.10;99.90;;;;;;5055165;28;20196;-79
2021/01/06 10:38:29;;;;;;;26.17;13.97;;;4.00;99.90;;;;;;5055256;28;20221;-79
2021/01/06 10:41:12;;;;;;;27.83;14.77;;;4.00;99.90;;;;;;5059669;28;20190;-79
2021/01/06 10:43:44;;;;;;;32.47;14.20;;;4.00;99.90;;;;;;5054683;28;20258;-79
2021/01/06 10:46:50;;;;;;;29.33;14.53;;;3.90;99.90;;;;;;5060138;28;20275;-79
2021/01/06 10:49:54;;;;;;;26.57;14.03;;;3.80;99.90;;;;;;5069332;28;20204;-79
2021/01/06 10:52:30;;;;;;;23.67;12.57;;;3.80;99.90;;;;;;5074644;28;20212;-79
2021/01/06 10:55:08;;;;;;;28.37;13.60;;;3.90;99.90;;;;;;5068352;28;20200;-79
2021/01/06 10:57:40;;;;;;;26.40;13.67;;;3.70;99.90;;;;;;5057043;28;20214;-79
2021/01/06 11:00:14;;;;;;;25.40;12.63;;;3.80;99.90;;;;;;5053983;28;20194;-78
2021/01/06 11:02:55;;;;;;;27.23;13.53;;;3.80;99.90;;;;;;5053807;28;20201;-78
2021/01/06 11:05:23;;;;;;;30.03;14.53;;;3.80;99.90;;;;;;5053764;28;20205;-77
2021/01/06 11:08:25;;;;;;;29.00;13.97;;;3.80;99.90;;;;;;5053673;28;20703;-77
2021/01/06 11:11:06;;;;;;;26.47;13.47;;;3.90;99.90;;;;;;5053610;28;20632;-77
2021/01/06 11:13:51;;;;;;;22.83;11.63;;;4.00;99.90;;;;;;5066775;28;20211;-78
2021/01/06 11:16:22;;;;;;;31.03;15.03;;;3.90;99.90;;;;;;5057018;28;20731;-77
2021/01/06 11:18:49;;;;;;;29.93;14.53;;;3.70;99.90;;;;;;5053325;28;20193;-77
2021/01/06 11:21:21;;;;;;;27.23;13.70;;;3.80;99.90;;;;;;5053797;28;20538;-77
2021/01/06 11:23:59;;;;;;;29.27;13.07;;;3.70;99.90;;;;;;5053844;28;20953;-78
2021/01/06 11:26:51;;;;;;;26.43;14.40;;;3.90;99.90;;;;;;5053170;28;20761;-78
2021/01/06 11:29:30;;;;;;;24.77;13.63;;;4.10;99.90;;;;;;5053722;28;20281;-77
2021/01/06 11:32:20;;;;;;;27.53;14.80;;;4.10;99.90;;;;;;5053773;28;20191;-78
2021/01/06 11:34:53;;;;;;;26.73;14.23;;;4.10;99.90;;;;;;5046009;28;20203;-78
2021/01/06 11:37:28;;;;;;;26.73;11.63;;;4.10;99.90;;;;;;5074038;28;20185;-77
2021/01/06 11:39:55;;;;;;;27.73;13.93;;;4.10;99.90;;;;;;5068741;28;20672;-77
2021/01/06 11:42:22;;;;;;;28.13;13.60;;;4.00;99.90;;;;;;5072797;28;20669;-78
2021/01/06 11:45:08;;;;;;;26.53;13.80;;;4.00;99.90;;;;;;5073147;28;20209;-78
2021/01/06 11:47:37;;;;;;;24.53;13.77;;;4.10;99.90;;;;;;5073137;28;20212;-78
2021/01/06 11:50:26;;;;;;;23.47;12.90;;;4.20;99.90;;;;;;5072487;28;20196;-78
2021/01/06 11:53:06;;;;;;;24.27;13.47;;;4.10;99.90;;;;;;5070175;28;20197;-78
2021/01/06 11:55:49;;;;;;;22.57;12.60;;;4.10;99.90;;;;;;5071323;28;20208;-78
2021/01/06 11:58:38;;;;;;;23.93;13.10;;;4.00;99.90;;;;;;5072443;28;20193;-78
2021/01/06 12:01:40;;;;;;;22.43;12.43;;;4.00;99.90;;;;;;5071294;28;20212;-77
2021/01/06 12:04:29;;;;;;;23.40;12.30;;;4.00;99.90;;;;;;5073772;28;20227;-77
2021/01/06 12:07:18;;;;;;;22.70;13.13;;;4.20;99.90;;;;;;5070293;28;20282;-78
2021/01/06 12:09:55;;;;;;;22.13;12.90;;;4.10;99.90;;;;;;5045775;28;20273;-78
2021/01/06 12:12:42;;;;;;;22.70;12.37;;;4.10;99.90;;;;;;5061980;28;20191;-78
2021/01/06 12:15:31;;;;;;;24.30;12.50;;;4.10;99.90;;;;;;5044635;28;20627;-78
2021/01/06 12:18:01;;;;;;;20.43;11.40;;;4.00;99.90;;;;;;5055102;28;20292;-78
2021/01/06 12:20:31;;;;;;;21.40;11.60;;;4.00;99.90;;;;;;5062393;28;20217;-78
2021/01/06 12:23:34;;;;;;;19.47;11.50;;;4.10;99.90;;;;;;5057826;28;20207;-79
2021/01/06 12:26:01;;;;;;;23.17;11.77;;;4.10;99.90;;;;;;5063911;28;20203;-78
2021/01/06 12:28:35;;;;;;;18.63;10.57;;;4.20;99.90;;;;;;5068288;28;20320;-79
2021/01/06 12:31:21;;;;;;;19.73;11.30;;;4.30;99.90;;;;;;5055925;28;20188;-78
2021/01/06 12:33:49;;;;;;;19.80;10.90;;;4.20;99.90;;;;;;5063347;28;20655;-78
2021/01/06 12:36:23;;;;;;;17.80;10.77;;;4.10;99.90;;;;;;5057658;28;20734;-78
2021/01/06 12:38:52;;;;;;;19.20;10.23;;;4.00;99.90;;;;;;5064468;28;20202;-78
2021/01/06 12:41:23;;;;;;;20.67;10.77;;;4.00;99.90;;;;;;5062889;28;20205;-79
2021/01/06 12:44:09;;;;;;;18.93;10.27;;;4.00;99.90;;;;;;5065979;28;20288;-79
2021/01/06 12:46:41;;;;;;;16.83;9.90;;;3.90;99.90;;;;;;5066476;28;20224;-78
2021/01/06 12:49:32;;;;;;;17.20;9.60;;;3.90;99.90;;;;;;5063031;28;20246;-78
2021/01/06 12:52:16;;;;;;;21.97;10.70;;;3.90;99.90;;;;;;5062023;28;20308;-79
2021/01/06 12:54:46;;;;;;;16.33;10.10;;;3.90;99.90;;;;;;5054088;28;20294;-79
2021/01/06 12:57:19;;;;;;;17.03;9.90;;;4.00;99.90;;;;;;5070563;28;20198;-78
2021/01/06 12:59:51;;;;;;;15.80;9.73;;;4.10;99.90;;;;;;5064962;28;20261;-78
2021/01/06 13:02:27;;;;;;;15.17;9.00;;;4.20;99.90;;;;;;5068447;28;20208;-78
2021/01/06 13:04:57;;;;;;;15.07;9.33;;;4.20;99.90;;;;;;5065055;28;20575;-79
2021/01/06 13:07:27;;;;;;;15.07;8.53;;;4.30;99.90;;;;;;5066267;28;20833;-78
2021/01/06 13:09:59;;;;;;;15.27;9.13;;;4.40;99.90;;;;;;5068826;28;20330;-79
2021/01/06 13:12:36;;;;;;;16.00;8.93;;;4.50;99.90;;;;;;5066997;28;20209;-79